Terminal Aerodrome Forecast
Issued by NWS

Home | Current Version | Previous Version | Text Only | Print | Product List | Glossary On
Versions: 1 2 3 4 5 6 7 8 9 10 11 12 13 14 15 16 17 18 19 20 21 22 23 24 25 26 27 28 29 30 31 32 33 34 35 36 37 38 39 40 41 42 43 44 45 46 47 48 49 50
000
FTUS43 KGRB 240520
TAFCWA
TAF
KCWA 240520Z 2406/2506 30006KT P6SM SCT015 BKN035
      TEMPO 2406/2410 BKN015
     FM241000 29005KT P6SM BKN030
     FM241600 30006KT P6SM SCT030 BKN050
     FM242300 VRB03KT P6SM SCT040 OVC100
     AMD LTD TO CLD VIS AND WIND TIL 241100=

USA.gov is the U.S. government's official web portal to all federal, state and local government web resources and services.